Time;durP1;ratioP1;P1;durP2;ratioP2;P2;SDS_P1;SDS_P2;PMS_P1;PMS_P2;Temp;Humidity;BMP_temperature;BMP_pressure;BME280_temperature;BME280_humidity;BME280_pressure;Samples;Min_cycle;Max_cycle;Signal;HPM_P1;HPM_P2
2023/01/19 00:00:01;;;;;;;27.13;16.85;;;;;;;0.38;100.00;99974.25;5246389;28;20073;-80
2023/01/19 00:02:32;;;;;;;25.88;17.98;;;;;;;0.38;100.00;99965.50;5246271;28;20024;-79
2023/01/19 00:05:04;;;;;;;26.20;17.52;;;;;;;0.40;100.00;99961.03;5249456;28;20033;-80
2023/01/19 00:07:35;;;;;;;28.17;18.20;;;;;;;0.40;100.00;99963.66;5242507;28;20655;-80
2023/01/19 00:10:08;;;;;;;28.08;17.92;;;;;;;0.38;100.00;99966.38;5248914;28;20029;-80
2023/01/19 00:12:39;;;;;;;25.60;17.15;;;;;;;0.38;100.00;99965.50;5249525;28;20446;-80
2023/01/19 00:15:11;;;;;;;26.80;16.80;;;;;;;0.39;100.00;99962.81;5242617;28;20123;-79
2023/01/19 00:17:42;;;;;;;26.15;16.90;;;;;;;0.44;100.00;99970.47;5249912;28;20025;-80
2023/01/19 00:20:14;;;;;;;26.60;17.67;;;;;;;0.46;100.00;99965.13;5246481;28;20025;-80
2023/01/19 00:22:49;;;;;;;28.60;17.88;;;;;;;0.44;100.00;99967.84;5253213;28;20032;-80
2023/01/19 00:25:20;;;;;;;25.98;16.92;;;;;;;0.48;100.00;99966.75;5243067;28;20475;-80
2023/01/19 00:27:52;;;;;;;25.13;16.52;;;;;;;0.48;100.00;99974.63;5248694;28;20067;-80
2023/01/19 00:30:23;;;;;;;24.38;16.70;;;;;;;0.62;100.00;99970.50;5247136;28;20028;-80
2023/01/19 00:32:55;;;;;;;29.55;17.27;;;;;;;0.55;100.00;99990.94;5264463;28;20386;-80
2023/01/19 00:35:26;;;;;;;28.25;16.95;;;;;;;0.54;100.00;99990.09;5246203;28;20036;-80
2023/01/19 00:37:58;;;;;;;26.23;16.98;;;;;;;0.54;100.00;99992.72;5249528;28;20207;-81
2023/01/19 00:40:29;;;;;;;26.55;16.75;;;;;;;0.56;100.00;99997.88;5247075;28;20090;-80
2023/01/19 00:43:01;;;;;;;22.98;15.98;;;;;;;0.56;100.00;99980.34;5247790;28;20104;-81
2023/01/19 00:45:33;;;;;;;25.98;16.67;;;;;;;0.61;100.00;99979.28;5244931;28;20029;-81
2023/01/19 00:48:05;;;;;;;26.77;17.10;;;;;;;0.58;100.00;99983.75;5247782;28;20775;-81
2023/01/19 00:50:36;;;;;;;27.35;17.05;;;;;;;0.58;100.00;99977.66;5243190;28;20037;-81
2023/01/19 00:53:07;;;;;;;24.83;15.30;;;;;;;0.57;100.00;99973.31;5246369;28;20028;-81
2023/01/19 00:55:39;;;;;;;25.65;16.88;;;;;;;0.55;100.00;99977.81;5245107;28;20311;-81
2023/01/19 00:58:10;;;;;;;24.48;15.32;;;;;;;0.57;100.00;99966.28;5247939;28;20021;-81
2023/01/19 01:00:41;;;;;;;23.58;15.40;;;;;;;0.58;100.00;99978.50;5246316;28;20141;-81
2023/01/19 01:03:13;;;;;;;24.40;15.32;;;;;;;0.52;100.00;99973.56;5246606;28;20033;-81
2023/01/19 01:05:44;;;;;;;24.23;15.50;;;;;;;0.50;100.00;99972.78;5240744;28;20032;-81
2023/01/19 01:08:15;;;;;;;25.40;16.00;;;;;;;0.50;100.00;99977.16;5246984;28;20582;-81
2023/01/19 01:10:46;;;;;;;26.30;15.40;;;;;;;0.48;100.00;99974.63;5247994;28;20119;-81
2023/01/19 01:13:18;;;;;;;26.05;16.20;;;;;;;0.57;100.00;99975.94;5249761;28;20025;-81
2023/01/19 01:15:53;;;;;;;25.70;15.68;;;;;;;0.48;100.00;99979.88;5252193;28;20043;-80
2023/01/19 01:18:25;;;;;;;22.75;15.45;;;;;;;0.43;100.00;99976.63;5252017;28;20021;-81
2023/01/19 01:21:01;;;;;;;24.33;14.73;;;;;;;0.48;100.00;99981.63;5251269;28;20411;-81
2023/01/19 01:23:33;;;;;;;25.25;15.60;;;;;;;0.56;100.00;99987.38;5254592;28;21105;-81
2023/01/19 01:26:05;;;;;;;24.15;14.80;;;;;;;0.51;100.00;99992.84;5247771;28;20021;-81
2023/01/19 01:28:36;;;;;;;23.63;14.13;;;;;;;0.52;100.00;99981.44;5251767;28;20048;-81
2023/01/19 01:31:08;;;;;;;24.50;14.25;;;;;;;0.56;100.00;99988.22;5257904;28;20029;-81
2023/01/19 01:33:39;;;;;;;20.52;13.60;;;;;;;0.61;100.00;99977.50;5258670;28;20059;-81
2023/01/19 01:36:10;;;;;;;22.00;13.63;;;;;;;0.64;100.00;99990.47;5249636;28;20174;-80
2023/01/19 01:38:42;;;;;;;23.67;14.48;;;;;;;0.67;100.00;99984.22;5254425;28;20367;-81
2023/01/19 01:41:13;;;;;;;23.50;14.20;;;;;;;0.66;100.00;99982.53;5254035;28;20436;-81
2023/01/19 01:43:50;;;;;;;23.08;13.88;;;;;;;0.68;100.00;99993.81;5254327;28;20036;-81
2023/01/19 01:46:21;;;;;;;22.52;13.52;;;;;;;0.70;100.00;99986.69;5255301;28;20031;-81
2023/01/19 01:49:02;;;;;;;20.80;12.85;;;;;;;0.71;100.00;99998.88;5253474;28;20033;-81
2023/01/19 01:51:40;;;;;;;20.17;12.43;;;;;;;0.73;100.00;100015.41;5250019;28;20021;-82
2023/01/19 01:54:21;;;;;;;21.80;13.48;;;;;;;0.76;100.00;100008.22;5252099;28;20052;-81
2023/01/19 01:56:58;;;;;;;20.27;12.90;;;;;;;0.76;100.00;100003.00;5248963;28;20024;-79
2023/01/19 01:59:37;;;;;;;19.67;12.35;;;;;;;0.74;100.00;100004.84;5255592;28;20028;-79
2023/01/19 02:05:16;;;;;;;20.52;12.18;;;;;;;0.61;100.00;100013.41;5254270;28;20037;-75
2023/01/19 02:13:42;;;;;;;23.02;11.80;;;;;;;0.33;100.00;100012.97;5251295;28;20037;-75
2023/01/19 02:16:15;;;;;;;24.25;12.40;;;;;;;0.29;100.00;100011.41;5242692;28;20490;-75
2023/01/19 02:18:46;;;;;;;20.50;11.32;;;;;;;0.26;100.00;100010.69;5252459;28;20040;-76
2023/01/19 02:21:45;;;;;;;22.00;11.60;;;;;;;0.24;100.00;100009.94;5244349;28;20037;-76
2023/01/19 02:24:17;;;;;;;21.58;11.75;;;;;;;0.23;100.00;100008.22;5251821;28;20032;-76
2023/01/19 02:26:49;;;;;;;26.33;12.80;;;;;;;0.19;100.00;100018.88;5252734;28;20052;-76
2023/01/19 02:29:24;;;;;;;21.67;12.57;;;;;;;0.19;100.00;100021.50;5251224;28;20551;-76
2023/01/19 02:31:58;;;;;;;24.65;14.55;;;;;;;0.24;100.00;100025.66;5252940;28;20040;-76
2023/01/19 02:34:31;;;;;;;26.10;13.95;;;;;;;0.23;100.00;100029.19;5260154;28;20029;-77
2023/01/19 02:37:08;;;;;;;23.85;14.73;;;;;;;0.22;100.00;100032.75;5246847;28;20081;-77
2023/01/19 02:39:44;;;;;;;24.08;14.43;;;;;;;0.23;100.00;100024.81;5259332;28;20105;-77
2023/01/19 02:42:30;;;;;;;24.27;14.57;;;;;;;0.23;100.00;100024.81;5253601;28;20024;-76
2023/01/19 02:45:05;;;;;;;27.73;15.27;;;;;;;0.24;100.00;100033.53;5252572;28;20029;-77
2023/01/19 02:47:45;;;;;;;27.20;15.27;;;;;;;0.24;100.00;100029.13;5249965;28;20453;-77
2023/01/19 02:50:44;;;;;;;26.58;17.05;;;;;;;0.23;100.00;100037.94;5254094;28;20052;-77
2023/01/19 02:53:31;;;;;;;27.40;16.30;;;;;;;0.18;100.00;100037.28;5251904;28;20050;-76
2023/01/19 02:56:27;;;;;;;23.90;15.10;;;;;;;0.13;100.00;100042.72;5257138;28;20561;-77
2023/01/19 02:59:09;;;;;;;22.25;15.48;;;;;;;0.06;100.00;100049.19;5255097;28;20028;-76
2023/01/19 03:01:49;;;;;;;26.15;16.05;;;;;;;0.02;100.00;100037.16;5253279;28;20115;-77
2023/01/19 03:04:38;;;;;;;27.98;16.20;;;;;;;0.02;100.00;100044.16;5261382;28;20025;-77
2023/01/19 03:07:15;;;;;;;25.48;17.25;;;;;;;-0.07;100.00;100032.34;5256332;28;20397;-77
2023/01/19 03:09:56;;;;;;;26.75;17.80;;;;;;;-0.10;100.00;100041.16;5259297;28;20017;-77
2023/01/19 03:12:50;;;;;;;27.50;19.13;;;;;;;-0.13;100.00;100045.72;5253119;28;20259;-77
2023/01/19 03:15:31;;;;;;;25.40;18.05;;;;;;;-0.16;100.00;100051.94;5250536;28;20086;-77
2023/01/19 03:18:07;;;;;;;27.20;18.73;;;;;;;-0.21;100.00;100056.56;5248608;28;20025;-77
2023/01/19 03:20:39;;;;;;;29.30;19.20;;;;;;;-0.24;100.00;100056.69;5253513;28;20056;-76
2023/01/19 03:23:13;;;;;;;29.73;19.58;;;;;;;-0.29;100.00;100058.66;5256070;28;20376;-76
2023/01/19 03:25:47;;;;;;;28.20;19.58;;;;;;;-0.28;100.00;100070.84;5252671;28;20025;-76
2023/01/19 03:28:21;;;;;;;31.75;20.45;;;;;;;-0.31;100.00;100071.81;5251624;28;20032;-76
2023/01/19 03:31:04;;;;;;;30.02;20.10;;;;;;;-0.32;100.00;100074.53;5251810;28;20026;-76
2023/01/19 03:33:39;;;;;;;27.17;19.13;;;;;;;-0.35;100.00;100072.03;5250250;28;20489;-76
2023/01/19 03:36:20;;;;;;;28.63;19.65;;;;;;;-0.38;100.00;100073.03;5257320;28;20040;-75
2023/01/19 03:38:53;;;;;;;28.08;19.83;;;;;;;-0.42;100.00;100082.78;5250331;28;20437;-75
2023/01/19 03:41:27;;;;;;;29.25;20.63;;;;;;;-0.45;100.00;100089.91;5251787;28;20493;-75
2023/01/19 03:44:00;;;;;;;28.75;19.98;;;;;;;-0.46;100.00;100096.06;5253913;28;20033;-74
2023/01/19 03:46:32;;;;;;;28.67;20.27;;;;;;;-0.47;100.00;100095.22;5246478;28;20032;-73
2023/01/19 03:49:04;;;;;;;29.05;19.10;;;;;;;-0.50;100.00;100091.88;5251002;28;20025;-72
2023/01/19 03:51:36;;;;;;;28.50;19.65;;;;;;;-0.53;100.00;100097.28;5254360;28;20024;-72
2023/01/19 03:54:09;;;;;;;28.15;19.42;;;;;;;-0.56;100.00;100092.16;5253452;28;20029;-71
2023/01/19 03:56:41;;;;;;;26.45;19.15;;;;;;;-0.56;100.00;100103.47;5249550;28;20025;-70
2023/01/19 03:59:16;;;;;;;26.23;18.95;;;;;;;-0.61;100.00;100103.69;5247833;28;20029;-70
2023/01/19 04:01:47;;;;;;;27.50;18.42;;;;;;;-0.63;100.00;100102.06;5246084;28;20024;-69
2023/01/19 04:04:19;;;;;;;25.30;17.88;;;;;;;-0.63;100.00;100129.09;5248054;28;20033;-70
2023/01/19 04:06:50;;;;;;;25.90;18.50;;;;;;;-0.65;100.00;100116.97;5254293;28;20025;-69
2023/01/19 04:09:21;;;;;;;23.27;16.95;;;;;;;-0.66;100.00;100104.78;5248052;28;20107;-68
2023/01/19 04:11:53;;;;;;;23.67;16.25;;;;;;;-0.67;100.00;100111.81;5248308;28;20386;-67
2023/01/19 04:14:24;;;;;;;23.55;16.67;;;;;;;-0.66;100.00;100110.03;5247191;28;20025;-67
2023/01/19 04:16:55;;;;;;;21.55;15.60;;;;;;;-0.68;100.00;100123.19;5249462;28;20141;-68
2023/01/19 04:19:26;;;;;;;19.83;14.15;;;;;;;-0.68;100.00;100125.81;5244849;28;20032;-68
2023/01/19 04:21:58;;;;;;;19.65;13.75;;;;;;;-0.70;100.00;100140.72;5247162;28;20106;-68
2023/01/19 04:24:29;;;;;;;18.27;13.07;;;;;;;-0.72;100.00;100136.47;5257038;28;20037;-68
2023/01/19 04:27:01;;;;;;;19.95;13.70;;;;;;;-0.73;100.00;100146.13;5260438;28;20062;-68
2023/01/19 04:29:32;;;;;;;16.55;12.10;;;;;;;-0.73;100.00;100148.72;5249058;28;20059;-68
2023/01/19 04:32:04;;;;;;;16.98;10.52;;;;;;;-0.73;100.00;100153.97;5253094;28;20556;-69
2023/01/19 04:34:35;;;;;;;15.25;10.50;;;;;;;-0.73;100.00;100151.34;5250391;28;20033;-69
2023/01/19 04:37:07;;;;;;;12.57;9.23;;;;;;;-0.75;100.00;100160.16;5247905;28;20478;-69
2023/01/19 04:39:38;;;;;;;11.82;8.40;;;;;;;-0.75;100.00;100154.94;5247149;28;20029;-70
2023/01/19 04:42:09;;;;;;;15.27;9.15;;;;;;;-0.78;100.00;100160.31;5242219;28;20033;-69
2023/01/19 04:44:41;;;;;;;14.35;9.20;;;;;;;-0.77;100.00;100167.25;5244824;28;20150;-70
2023/01/19 04:47:13;;;;;;;13.23;8.65;;;;;;;-0.78;100.00;100165.56;5247688;28;20455;-69
2023/01/19 04:49:44;;;;;;;11.85;8.13;;;;;;;-0.79;100.00;100162.06;5246325;28;20122;-69
2023/01/19 04:52:15;;;;;;;11.98;8.10;;;;;;;-0.80;100.00;100152.50;5245833;28;20033;-69
2023/01/19 04:54:47;;;;;;;12.40;7.97;;;;;;;-0.81;100.00;100146.41;5246049;28;20047;-69
2023/01/19 04:57:18;;;;;;;14.55;8.45;;;;;;;-0.81;100.00;100132.47;5258415;28;20040;-70
2023/01/19 04:59:49;;;;;;;16.33;10.52;;;;;;;-0.80;100.00;100124.53;5250890;28;20028;-71
2023/01/19 05:02:21;;;;;;;16.33;11.23;;;;;;;-0.78;100.00;100113.16;5228846;28;20044;-70
2023/01/19 05:04:53;;;;;;;15.30;10.88;;;;;;;-0.79;100.00;100112.28;5247566;28;20028;-70
2023/01/19 05:07:24;;;;;;;14.82;11.30;;;;;;;-0.75;100.00;100098.16;5251786;28;20052;-70
2023/01/19 05:09:56;;;;;;;18.92;11.25;;;;;;;-0.68;100.00;100104.00;5247632;28;20102;-70
2023/01/19 05:12:27;;;;;;;17.08;11.25;;;;;;;-0.70;100.00;100095.34;5246530;28;20036;-70
2023/01/19 05:14:58;;;;;;;18.05;11.13;;;;;;;-0.73;100.00;100096.34;5249366;28;20087;-70
2023/01/19 05:17:30;;;;;;;14.82;9.60;;;;;;;-0.64;100.00;100077.59;5248417;28;20126;-70
2023/01/19 05:20:02;;;;;;;14.57;9.65;;;;;;;-0.69;100.00;100094.44;5247733;28;20182;-68
2023/01/19 05:22:34;;;;;;;14.77;9.60;;;;;;;-0.61;100.00;100101.06;5246693;28;20037;-70
2023/01/19 05:25:07;;;;;;;16.70;9.77;;;;;;;-0.67;100.00;100101.31;5246762;28;20036;-70
2023/01/19 05:27:38;;;;;;;18.20;11.10;;;;;;;-0.67;100.00;100111.81;5250943;28;20506;-70
2023/01/19 05:30:11;;;;;;;21.73;12.82;;;;;;;-0.68;100.00;100112.69;5247718;28;20033;-71
2023/01/19 05:32:43;;;;;;;24.25;15.45;;;;;;;-0.68;100.00;100132.81;5249849;28;20033;-71
2023/01/19 05:35:15;;;;;;;24.80;15.98;;;;;;;-0.68;100.00;100132.81;5248268;28;20032;-71
2023/01/19 05:37:47;;;;;;;28.30;17.10;;;;;;;-0.70;100.00;100127.63;5249035;28;20360;-71
2023/01/19 05:40:19;;;;;;;30.67;18.92;;;;;;;-0.68;100.00;100127.56;5245461;28;20486;-71
2023/01/19 05:42:52;;;;;;;27.80;18.10;;;;;;;-0.68;100.00;100141.53;5246493;28;20156;-71
2023/01/19 05:45:23;;;;;;;29.08;18.38;;;;;;;-0.66;100.00;100125.75;5242613;28;20025;-71
2023/01/19 05:47:54;;;;;;;30.73;18.88;;;;;;;-0.65;100.00;100125.69;5252867;28;20041;-71
2023/01/19 05:50:26;;;;;;;29.13;17.48;;;;;;;-0.65;100.00;100130.09;5254213;28;20032;-71
2023/01/19 05:52:58;;;;;;;26.55;16.75;;;;;;;-0.67;100.00;100135.38;5250229;28;20025;-71
2023/01/19 05:55:31;;;;;;;30.98;18.30;;;;;;;-0.66;100.00;100129.22;5253554;28;21371;-71
2023/01/19 05:58:02;;;;;;;28.90;19.45;;;;;;;-0.64;100.00;100126.53;5254474;28;20029;-71
2023/01/19 06:00:33;;;;;;;34.03;19.95;;;;;;;-0.62;100.00;100129.94;5254847;28;20041;-71
2023/01/19 06:03:05;;;;;;;31.75;19.80;;;;;;;-0.64;100.00;100142.25;5249842;28;20036;-71
2023/01/19 06:05:38;;;;;;;31.65;19.65;;;;;;;-0.63;100.00;100139.56;5249888;28;20160;-71
2023/01/19 06:08:09;;;;;;;33.13;20.10;;;;;;;-0.61;100.00;100150.00;5251555;28;20453;-71
2023/01/19 06:10:40;;;;;;;35.72;22.02;;;;;;;-0.63;100.00;100150.06;5249272;28;20033;-72
2023/01/19 06:13:12;;;;;;;35.55;21.83;;;;;;;-0.62;100.00;100148.28;5252194;28;20029;-71
2023/01/19 06:15:44;;;;;;;38.28;21.92;;;;;;;-0.61;100.00;100148.22;5249588;28;20033;-71
2023/01/19 06:18:15;;;;;;;35.67;21.23;;;;;;;-0.58;100.00;100151.63;5259502;28;20036;-71
2023/01/19 06:20:46;;;;;;;37.50;22.25;;;;;;;-0.61;100.00;100163.09;5251762;28;20045;-71
2023/01/19 06:23:19;;;;;;;37.83;23.23;;;;;;;-0.61;100.00;100163.09;5251134;28;20038;-71
2023/01/19 06:25:51;;;;;;;34.90;23.05;;;;;;;-0.60;100.00;100175.25;5252677;28;20546;-71
2023/01/19 06:28:22;;;;;;;39.78;25.42;;;;;;;-0.61;100.00;100163.09;5258727;28;20067;-71
2023/01/19 06:30:55;;;;;;;41.70;27.67;;;;;;;-0.59;100.00;100166.50;5250102;28;20040;-71
2023/01/19 06:33:27;;;;;;;41.40;28.23;;;;;;;-0.58;100.00;100169.97;5244692;28;20044;-70
2023/01/19 06:35:58;;;;;;;43.13;28.63;;;;;;;-0.61;100.00;100171.78;5250082;28;20387;-71
2023/01/19 06:38:31;;;;;;;44.97;30.02;;;;;;;-0.59;100.00;100184.84;5253795;28;20036;-71
2023/01/19 06:41:03;;;;;;;50.67;31.45;;;;;;;-0.57;100.00;100179.53;5256193;28;20024;-71
2023/01/19 06:43:34;;;;;;;45.28;30.70;;;;;;;-0.60;100.00;100173.47;5251801;28;20021;-71
2023/01/19 06:46:06;;;;;;;46.88;32.65;;;;;;;-0.60;100.00;100180.50;5255667;28;20547;-71
2023/01/19 06:48:37;;;;;;;52.40;33.78;;;;;;;-0.59;100.00;100176.97;5252730;28;20376;-71
2023/01/19 06:51:08;;;;;;;58.75;36.38;;;;;;;-0.61;100.00;100198.00;5252228;28;20033;-71
2023/01/19 06:53:40;;;;;;;55.25;36.60;;;;;;;-0.57;100.00;100184.78;5253485;28;20028;-71
2023/01/19 06:56:11;;;;;;;56.45;37.67;;;;;;;-0.56;100.00;100189.94;5253848;28;20035;-70
2023/01/19 06:58:43;;;;;;;57.15;37.42;;;;;;;-0.58;100.00;100197.00;5254443;28;20513;-71
2023/01/19 07:01:14;;;;;;;66.07;40.08;;;;;;;-0.58;100.00;100201.41;5256777;28;20449;-72
2023/01/19 07:03:45;;;;;;;63.58;40.47;;;;;;;-0.54;100.00;100213.47;5248513;28;20151;-72
2023/01/19 07:06:16;;;;;;;63.42;41.42;;;;;;;-0.53;100.00;100218.63;5256615;28;20029;-71
2023/01/19 07:08:48;;;;;;;65.35;42.35;;;;;;;-0.53;100.00;100212.56;5255752;28;20112;-72
2023/01/19 07:11:19;;;;;;;67.47;43.10;;;;;;;-0.51;100.00;100222.06;5250779;28;20048;-73
2023/01/19 07:13:54;;;;;;;67.78;41.70;;;;;;;-0.47;100.00;100228.03;5251904;28;20029;-72
2023/01/19 07:16:25;;;;;;;;;;;;;;;-0.46;100.00;100234.94;5247765;28;20518;-72
2023/01/19 07:18:56;;;;;;;66.63;42.05;;;;;;;-0.45;100.00;100229.66;5257054;28;19916;-72
2023/01/19 07:21:28;;;;;;;65.10;41.08;;;;;;;-0.42;100.00;100232.16;5257789;28;20383;-73
2023/01/19 07:23:59;;;;;;;66.00;42.15;;;;;;;-0.35;100.00;100231.91;5253298;28;20080;-73
2023/01/19 07:26:31;;;;;;;68.55;42.47;;;;;;;-0.36;100.00;100236.31;5245732;28;20036;-73
2023/01/19 07:29:02;;;;;;;70.43;43.47;;;;;;;-0.36;100.00;100243.31;5253869;28;20075;-72
2023/01/19 07:31:33;;;;;;;72.90;42.20;;;;;;;-0.36;100.00;100244.16;5242023;28;20021;-73
2023/01/19 07:34:05;;;;;;;74.68;41.63;;;;;;;-0.35;100.00;100248.47;5253632;28;20024;-72
2023/01/19 07:36:37;;;;;;;71.75;42.20;;;;;;;-0.33;100.00;100251.03;5249329;28;20374;-72
2023/01/19 07:39:08;;;;;;;71.80;41.92;;;;;;;-0.33;100.00;100251.88;5252155;28;20765;-71
2023/01/19 07:41:39;;;;;;;69.03;41.45;;;;;;;-0.34;100.00;100255.44;5247269;28;20029;-71
2023/01/19 07:44:10;;;;;;;70.78;42.38;;;;;;;-0.35;100.00;100265.97;5244908;28;20098;-70
2023/01/19 07:46:42;;;;;;;73.05;41.35;;;;;;;-0.40;100.00;100260.94;5246848;28;20045;-70
2023/01/19 07:49:13;;;;;;;67.80;40.65;;;;;;;-0.41;100.00;100272.31;5251952;28;20090;-71
2023/01/19 07:51:45;;;;;;;65.38;38.67;;;;;;;-0.44;100.00;100264.56;5247767;28;20145;-70
2023/01/19 07:54:16;;;;;;;62.50;38.03;;;;;;;-0.45;100.00;100270.75;5250721;28;20028;-70
2023/01/19 07:56:47;;;;;;;60.83;37.72;;;;;;;-0.45;100.00;100281.22;5248982;28;20041;-70
2023/01/19 07:59:19;;;;;;;70.90;38.10;;;;;;;-0.47;100.00;100270.78;5247363;28;20178;-71
2023/01/19 08:01:52;;;;;;;64.28;36.70;;;;;;;-0.48;100.00;100287.44;5243858;28;20118;-70
2023/01/19 08:04:26;;;;;;;69.70;39.45;;;;;;;-0.42;100.00;100292.44;5244905;28;21985;-70
2023/01/19 08:06:57;;;;;;;;;;;;;;;-0.44;100.00;100293.38;5249849;28;20876;-70
2023/01/19 08:09:28;;;;;;;69.15;37.05;;;;;;;-0.48;100.00;100295.31;5254195;28;19924;-70
2023/01/19 08:12:00;;;;;;;65.15;38.17;;;;;;;-0.46;100.00;100292.59;5248327;28;20044;-70
2023/01/19 08:14:31;;;;;;;70.60;38.35;;;;;;;-0.42;100.00;100302.06;5252111;28;20090;-70
2023/01/19 08:17:03;;;;;;;73.78;38.60;;;;;;;-0.44;100.00;100303.88;5251353;28;20426;-71
2023/01/19 08:19:34;;;;;;;72.38;38.63;;;;;;;-0.47;100.00;100307.47;5250134;28;20017;-70
2023/01/19 08:22:05;;;;;;;73.55;40.15;;;;;;;-0.47;100.00;100304.00;5249098;28;20051;-70
2023/01/19 08:24:37;;;;;;;79.72;38.15;;;;;;;-0.46;100.00;100306.59;5251556;28;20029;-71
2023/01/19 08:27:11;;;;;;;78.80;38.72;;;;;;;-0.46;100.00;100310.94;5252135;28;20033;-70
2023/01/19 08:29:42;;;;;;;82.15;38.33;;;;;;;-0.46;100.00;100316.19;5251555;28;20063;-70
2023/01/19 08:32:13;;;;;;;82.30;39.30;;;;;;;-0.46;100.00;100327.53;5246806;28;20026;-70
2023/01/19 08:34:45;;;;;;;72.07;37.83;;;;;;;-0.42;100.00;100330.91;5251605;28;20040;-71
2023/01/19 08:37:16;;;;;;;86.95;40.28;;;;;;;-0.37;100.00;100333.31;5252069;28;20025;-70
2023/01/19 08:39:47;;;;;;;85.75;39.53;;;;;;;-0.35;100.00;100334.13;5246601;28;20036;-70
2023/01/19 08:42:18;;;;;;;84.20;39.38;;;;;;;-0.41;100.00;100338.69;5246453;28;20040;-71
2023/01/19 08:44:50;;;;;;;85.30;40.47;;;;;;;-0.41;100.00;100348.31;5247790;28;20021;-71
2023/01/19 08:47:21;;;;;;;85.38;38.63;;;;;;;-0.41;100.00;100350.94;5246167;28;20063;-71
2023/01/19 08:49:53;;;;;;;89.32;39.50;;;;;;;-0.40;100.00;100347.41;5247569;28;20032;-70
2023/01/19 08:52:25;;;;;;;94.15;39.47;;;;;;;-0.37;100.00;100356.91;5248336;28;20074;-71
2023/01/19 08:54:56;;;;;;;90.18;38.90;;;;;;;-0.37;100.00;100357.75;5249851;28;20029;-71
2023/01/19 08:57:28;;;;;;;90.40;40.35;;;;;;;-0.30;100.00;100361.84;5243895;28;20517;-71
2023/01/19 08:59:59;;;;;;;98.88;40.65;;;;;;;-0.25;100.00;100362.53;5251311;28;20047;-71
2023/01/19 09:02:30;;;;;;;96.13;41.80;;;;;;;-0.31;100.00;100361.91;5246839;28;20031;-71
2023/01/19 09:05:03;;;;;;;93.88;40.65;;;;;;;-0.31;100.00;100367.16;5250553;28;20044;-71
2023/01/19 09:07:35;;;;;;;97.10;43.08;;;;;;;-0.30;100.00;100364.47;5244391;28;20104;-71
2023/01/19 09:10:07;;;;;;;95.97;42.83;;;;;;;-0.27;100.00;100368.75;5249004;28;20025;-72
2023/01/19 09:12:39;;;;;;;102.88;42.72;;;;;;;-0.23;100.00;100367.69;5247492;28;20040;-71
2023/01/19 09:15:12;;;;;;;107.72;43.72;;;;;;;-0.20;100.00;100375.44;5248740;28;20031;-71
2023/01/19 09:17:44;;;;;;;102.53;44.65;;;;;;;-0.23;100.00;100371.19;5245760;28;20056;-71
2023/01/19 09:20:15;;;;;;;92.88;42.70;;;;;;;-0.15;100.00;100372.63;5247792;28;20206;-70
2023/01/19 09:22:46;;;;;;;103.95;42.30;;;;;;;-0.14;100.00;100374.34;5244725;28;20021;-70
2023/01/19 09:25:18;;;;;;;100.78;43.83;;;;;;;-0.14;100.00;100376.97;5249515;28;20037;-71
2023/01/19 09:27:50;;;;;;;90.82;41.40;;;;;;;-0.15;100.00;100376.13;5249552;28;20317;-71
2023/01/19 09:30:21;;;;;;;97.10;43.03;;;;;;;-0.13;100.00;100376.09;5247208;28;20120;-70
2023/01/19 09:32:52;;;;;;;88.28;42.25;;;;;;;-0.11;100.00;100376.88;5251462;28;20032;-70
2023/01/19 09:35:24;;;;;;;87.30;40.30;;;;;;;-0.14;100.00;100377.81;5247775;28;20033;-70
2023/01/19 09:37:55;;;;;;;91.50;41.58;;;;;;;-0.13;100.00;100387.41;5249318;28;20688;-70
2023/01/19 09:40:27;;;;;;;85.07;39.88;;;;;;;-0.14;100.00;100374.34;5249269;28;20508;-70
2023/01/19 09:43:03;;;;;;;78.30;38.25;;;;;;;-0.09;100.00;100396.03;5249030;28;20552;-71
2023/01/19 09:45:44;;;;;;;89.20;40.08;;;;;;;-0.13;100.00;100390.03;5247166;28;20055;-70
2023/01/19 09:48:38;;;;;;;79.68;39.53;;;;;;;-0.14;100.00;100395.34;5251500;28;20529;-71
2023/01/19 09:51:21;;;;;;;81.90;38.05;;;;;;;-0.12;100.00;100401.38;5251071;28;20029;-71
2023/01/19 09:54:19;;;;;;;76.67;37.37;;;;;;;-0.11;100.00;100398.69;5255778;28;20116;-71
2023/01/19 09:56:52;;;;;;;71.10;35.40;;;;;;;-0.10;100.00;100403.00;5249175;28;20025;-72
2023/01/19 09:59:32;;;;;;;75.82;36.03;;;;;;;-0.08;100.00;100405.56;5250374;28;20029;-72
2023/01/19 10:02:30;;;;;;;71.38;34.65;;;;;;;-0.01;100.00;100410.50;5248746;28;20033;-73
2023/01/19 10:05:11;;;;;;;79.55;35.92;;;;;;;-0.03;100.00;100414.13;5248602;28;20036;-72
2023/01/19 10:08:13;;;;;;;65.40;34.75;;;;;;;-0.01;100.00;100426.25;5244625;28;20684;-72
2023/01/19 10:10:51;;;;;;;70.57;33.65;;;;;;;-0.01;100.00;100422.78;5239911;28;20060;-73
2023/01/19 10:13:31;;;;;;;69.30;33.03;;;;;;;0.02;100.00;100430.53;5250625;28;20028;-73
2023/01/19 10:16:11;;;;;;;73.18;34.17;;;;;;;0.05;100.00;100425.16;5241950;28;20033;-73
2023/01/19 10:18:50;;;;;;;63.10;32.42;;;;;;;0.17;100.00;100423.81;5247642;28;20028;-73
2023/01/19 10:21:26;;;;;;;65.80;35.35;;;;;;;0.11;100.00;100424.91;5245387;28;20044;-74
2023/01/19 10:24:05;;;;;;;67.68;33.13;;;;;;;0.15;100.00;100428.25;5246145;28;20031;-74
2023/01/19 10:26:42;;;;;;;70.18;33.03;;;;;;;0.16;100.00;100435.22;5249613;28;20124;-74
2023/01/19 10:29:38;;;;;;;57.95;31.13;;;;;;;0.18;100.00;100422.91;5248744;28;20028;-74
2023/01/19 10:32:18;;;;;;;67.80;32.30;;;;;;;0.16;100.00;100422.97;5251515;28;20550;-74
2023/01/19 10:34:50;;;;;;;59.78;32.13;;;;;;;0.19;100.00;100428.09;5249222;28;20044;-73
2023/01/19 10:37:33;;;;;;;64.75;31.77;;;;;;;0.22;100.00;100428.88;5249944;28;20035;-73
2023/01/19 10:40:10;;;;;;;61.72;32.83;;;;;;;0.25;100.00;100431.38;5242893;28;20013;-73
2023/01/19 10:42:41;;;;;;;62.65;31.20;;;;;;;0.22;100.00;100431.50;5248033;28;20033;-72
2023/01/19 10:45:17;;;;;;;58.97;31.23;;;;;;;0.23;100.00;100427.94;5241992;28;20039;-72
2023/01/19 10:47:51;;;;;;;61.85;31.73;;;;;;;0.23;100.00;100433.19;5245965;28;20037;-71
2023/01/19 10:50:25;;;;;;;58.80;30.67;;;;;;;0.23;100.00;100438.44;5249498;28;20031;-72
2023/01/19 10:53:04;;;;;;;62.08;31.17;;;;;;;0.24;100.00;100430.53;5248028;28;20041;-71
2023/01/19 10:55:40;;;;;;;55.85;30.20;;;;;;;0.27;100.00;100433.03;5251582;28;20020;-72
2023/01/19 10:58:29;;;;;;;58.28;31.77;;;;;;;0.29;100.00;100435.56;5251354;28;20044;-72
2023/01/19 11:01:18;;;;;;;58.72;30.88;;;;;;;0.31;100.00;100436.38;5233527;28;20543;-72
2023/01/19 11:03:50;;;;;;;65.03;30.83;;;;;;;0.36;100.00;100437.03;5243125;28;20028;-72
2023/01/19 11:06:29;;;;;;;59.65;32.55;;;;;;;0.34;100.00;100431.00;5228871;28;20916;-72
2023/01/19 11:09:27;;;;;;;63.58;31.63;;;;;;;0.39;100.00;100445.63;5231344;28;20396;-72
2023/01/19 11:11:58;;;;;;;68.93;34.65;;;;;;;0.37;100.00;100430.88;5229949;28;20131;-72
2023/01/19 11:14:30;;;;;;;66.18;34.75;;;;;;;0.41;100.00;100436.88;5238692;28;20037;-72
2023/01/19 11:17:01;;;;;;;62.50;32.38;;;;;;;0.43;100.00;100432.41;5243287;28;20032;-72
2023/01/19 11:19:33;;;;;;;67.65;35.35;;;;;;;0.42;100.00;100439.41;5249399;28;20024;-72
2023/01/19 11:22:21;;;;;;;62.58;34.10;;;;;;;0.45;100.00;100433.19;5249831;28;20049;-72
2023/01/19 11:24:57;;;;;;;70.40;34.92;;;;;;;0.45;100.00;100431.41;5245375;28;20029;-72
2023/01/19 11:27:33;;;;;;;64.65;33.17;;;;;;;0.46;100.00;100433.13;5247325;28;20028;-72
2023/01/19 11:30:16;;;;;;;63.97;33.78;;;;;;;0.48;100.00;100431.31;5245959;28;20427;-72
2023/01/19 11:32:48;;;;;;;59.95;32.78;;;;;;;0.48;100.00;100425.19;5245003;28;20479;-72
2023/01/19 11:35:38;;;;;;;57.53;31.58;;;;;;;0.55;100.00;100421.38;5244389;28;20065;-71
2023/01/19 11:38:12;;;;;;;57.92;32.00;;;;;;;0.56;100.00;100426.56;5246337;28;20083;-71
2023/01/19 11:40:55;;;;;;;63.33;32.08;;;;;;;0.55;100.00;100426.63;5247525;28;20546;-71
2023/01/19 11:43:28;;;;;;;55.67;31.33;;;;;;;0.57;100.00;100419.56;5240729;28;20747;-71
2023/01/19 11:46:00;;;;;;;61.50;31.67;;;;;;;0.56;100.00;100418.69;5247119;28;20083;-71